Time;durP1;ratioP1;P1;durP2;ratioP2;P2;SDS_P1;SDS_P2;PMS_P1;PMS_P2;Temp;Humidity;BMP_temperature;BMP_pressure;BME280_temperature;BME280_humidity;BME280_pressure;Samples;Min_cycle;Max_cycle;Signal;HPM_P1;HPM_P2
2023/08/03 00:02:18;;;;;;;1.90;1.37;;;16.90;99.90;;;;;;5051796;28;20328;-75
2023/08/03 00:04:43;;;;;;;2.10;1.10;;;16.90;99.90;;;;;;5029048;28;20111;-74
2023/08/03 00:07:09;;;;;;;2.17;1.67;;;16.80;99.90;;;;;;5035129;28;20030;-74
2023/08/03 00:09:35;;;;;;;1.77;1.27;;;16.80;99.90;;;;;;5029903;28;20026;-74
2023/08/03 00:12:00;;;;;;;2.33;1.20;;;16.90;99.90;;;;;;5033588;28;20037;-74
2023/08/03 00:14:26;;;;;;;4.23;1.80;;;16.90;99.90;;;;;;5021914;28;20408;-74
2023/08/03 00:16:52;;;;;;;7.23;2.17;;;16.90;99.90;;;;;;5034765;28;20041;-73
2023/08/03 00:19:17;;;;;;;7.97;1.83;;;16.90;99.90;;;;;;5027886;28;20412;-73
2023/08/03 00:21:43;;;;;;;8.50;1.53;;;16.90;99.90;;;;;;5033340;28;20165;-74
2023/08/03 00:24:08;;;;;;;6.47;1.67;;;16.90;99.90;;;;;;5030680;28;20124;-73
2023/08/03 00:26:34;;;;;;;7.73;1.57;;;16.90;99.90;;;;;;5034913;28;20359;-74
2023/08/03 00:29:00;;;;;;;5.38;1.20;;;16.90;99.90;;;;;;5021926;28;20044;-75
2023/08/03 00:31:26;;;;;;;5.33;1.13;;;16.90;99.90;;;;;;5034613;28;20033;-76
2023/08/03 00:33:52;;;;;;;5.80;1.60;;;16.90;99.90;;;;;;5026458;28;20022;-75
2023/08/03 00:36:17;;;;;;;5.97;1.47;;;16.90;99.90;;;;;;5030818;28;20320;-75
2023/08/03 00:38:43;;;;;;;2.63;1.40;;;17.00;99.90;;;;;;5031427;28;20045;-75
2023/08/03 00:41:09;;;;;;;6.63;1.30;;;17.00;99.90;;;;;;5019780;28;20475;-75
2023/08/03 00:43:35;;;;;;;4.77;1.20;;;16.90;99.90;;;;;;5031566;28;20278;-75
2023/08/03 00:46:01;;;;;;;3.80;1.10;;;16.90;99.90;;;;;;5018600;28;20127;-75
2023/08/03 00:48:26;;;;;;;6.13;1.53;;;17.00;99.90;;;;;;5032201;28;20026;-74
2023/08/03 00:50:52;;;;;;;4.23;1.07;;;16.90;99.90;;;;;;5031884;28;20067;-74
2023/08/03 00:53:18;;;;;;;10.00;0.97;;;16.90;99.90;;;;;;5034394;28;20026;-83
2023/08/03 00:55:44;;;;;;;6.43;1.50;;;16.90;99.90;;;;;;5030297;28;20025;-74
2023/08/03 00:58:09;;;;;;;6.27;1.63;;;16.90;99.90;;;;;;5031646;28;20048;-74
2023/08/03 01:00:36;;;;;;;2.23;1.30;;;17.00;99.90;;;;;;5027585;28;20108;-75
2023/08/03 01:03:02;;;;;;;;;;;17.00;99.90;;;;;;5031862;28;20026;-87
2023/08/03 01:05:28;;;;;;;2.75;1.13;;;17.00;99.90;;;;;;5034954;28;19909;-75
2023/08/03 01:07:53;;;;;;;3.67;1.17;;;17.00;99.90;;;;;;5025400;28;20057;-74
2023/08/03 01:10:19;;;;;;;2.77;1.10;;;16.90;99.90;;;;;;5041673;28;20360;-73
2023/08/03 01:12:45;;;;;;;3.60;1.35;;;16.90;99.90;;;;;;5029028;28;20126;-74
2023/08/03 01:15:11;;;;;;;2.17;0.70;;;16.90;99.90;;;;;;5034597;28;20103;-75
2023/08/03 01:17:37;;;;;;;3.57;0.80;;;16.80;99.90;;;;;;5023787;28;20456;-74
2023/08/03 01:20:02;;;;;;;1.63;0.93;;;16.90;99.90;;;;;;5021264;28;20025;-86
2023/08/03 01:22:31;;;;;;;3.57;0.67;;;16.80;99.90;;;;;;5028342;28;20029;-74
2023/08/03 01:24:56;;;;;;;2.45;0.93;;;16.80;99.90;;;;;;5022568;28;20650;-74
2023/08/03 01:27:22;;;;;;;4.73;1.20;;;16.80;99.90;;;;;;5047797;28;20095;-74
2023/08/03 01:29:48;;;;;;;4.43;0.80;;;16.80;99.90;;;;;;5037519;28;20033;-73
2023/08/03 01:32:13;;;;;;;3.73;0.93;;;16.80;99.90;;;;;;5017118;28;20030;-74
2023/08/03 01:34:39;;;;;;;9.63;1.20;;;16.80;99.90;;;;;;5034583;28;20025;-73
2023/08/03 01:37:06;;;;;;;8.67;1.17;;;16.80;99.90;;;;;;5021383;28;20037;-73
2023/08/03 01:39:32;;;;;;;2.17;0.75;;;16.80;99.90;;;;;;5031804;28;20412;-73
2023/08/03 01:41:57;;;;;;;1.37;0.53;;;16.90;99.90;;;;;;5032950;28;20071;-73
2023/08/03 01:44:28;;;;;;;8.43;1.20;;;16.80;99.90;;;;;;5031292;28;20433;-72
2023/08/03 01:46:56;;;;;;;4.07;1.20;;;16.90;99.90;;;;;;5040329;28;20029;-74
2023/08/03 01:49:22;;;;;;;2.72;0.65;;;16.90;99.90;;;;;;5035741;28;20028;-73
2023/08/03 01:51:49;;;;;;;;;;;16.90;99.90;;;;;;5041794;28;20088;-73
2023/08/03 01:54:15;;;;;;;5.63;1.00;;;16.90;99.90;;;;;;5023983;28;19909;-75
2023/08/03 01:56:41;;;;;;;6.32;1.10;;;16.90;99.90;;;;;;5031416;28;20018;-74
2023/08/03 01:59:06;;;;;;;4.70;1.00;;;16.90;99.90;;;;;;5021059;28;20033;-73
2023/08/03 02:01:32;;;;;;;2.77;1.30;;;17.00;99.90;;;;;;5021691;28;20018;-73
2023/08/03 02:03:58;;;;;;;3.77;1.10;;;17.00;99.90;;;;;;5023245;28;20097;-73
2023/08/03 02:06:24;;;;;;;6.37;1.17;;;17.00;99.90;;;;;;5027951;28;20116;-78
2023/08/03 02:08:49;;;;;;;5.07;1.90;;;17.00;99.90;;;;;;5023509;28;20053;-74
2023/08/03 02:11:15;;;;;;;7.00;1.20;;;17.00;99.90;;;;;;5031625;28;20026;-73
2023/08/03 02:13:41;;;;;;;4.53;1.37;;;17.00;99.90;;;;;;5045020;28;20024;-74
2023/08/03 02:16:10;;;;;;;5.67;1.30;;;16.90;99.90;;;;;;5044211;28;20114;-73
2023/08/03 02:18:36;;;;;;;3.90;1.52;;;16.90;99.90;;;;;;5029442;28;20091;-74
2023/08/03 02:21:03;;;;;;;2.78;1.55;;;16.90;99.90;;;;;;5042256;28;20037;-85
2023/08/03 02:23:28;;;;;;;;;;;16.90;99.90;;;;;;5031956;28;20045;-74
2023/08/03 02:25:54;;;;;;;11.20;1.90;;;16.90;99.90;;;;;;5025186;28;19916;-73
2023/08/03 02:28:20;;;;;;;6.10;2.37;;;16.90;99.90;;;;;;5027940;28;20278;-82
2023/08/03 02:30:45;;;;;;;5.80;1.60;;;16.90;99.90;;;;;;5028925;28;20038;-73
2023/08/03 02:33:11;;;;;;;4.30;1.77;;;17.00;99.90;;;;;;5024804;28;20021;-73
2023/08/03 02:35:39;;;;;;;6.13;2.70;;;16.90;99.90;;;;;;5031683;28;20026;-73
2023/08/03 02:38:05;;;;;;;3.85;1.80;;;16.90;99.90;;;;;;5021903;28;20321;-74
2023/08/03 02:40:31;;;;;;;6.85;1.77;;;16.90;99.90;;;;;;5021773;28;20033;-73
2023/08/03 02:42:56;;;;;;;7.27;2.50;;;16.90;99.90;;;;;;5016186;28;20037;-72
2023/08/03 02:45:22;;;;;;;4.37;2.40;;;16.90;99.90;;;;;;5015492;28;20043;-73
2023/08/03 02:47:48;;;;;;;7.83;2.90;;;16.90;99.90;;;;;;5014948;28;20049;-73
2023/08/03 02:50:14;;;;;;;8.67;3.17;;;16.90;99.90;;;;;;5034646;28;20021;-73
2023/08/03 02:52:39;;;;;;;5.17;2.57;;;16.90;99.90;;;;;;5052438;28;20084;-72
2023/08/03 02:55:05;;;;;;;7.57;3.03;;;16.90;99.90;;;;;;5032150;28;20045;-73
2023/08/03 02:57:31;;;;;;;4.55;2.25;;;16.80;99.90;;;;;;5037346;28;20036;-73
2023/08/03 02:59:57;;;;;;;18.27;2.77;;;16.80;99.90;;;;;;5030484;28;20038;-73
2023/08/03 03:02:23;;;;;;;8.57;2.80;;;16.80;99.90;;;;;;5032671;28;20026;-87
2023/08/03 03:04:49;;;;;;;7.70;3.33;;;16.80;99.90;;;;;;5037299;28;20037;-88
2023/08/03 03:07:15;;;;;;;;;;;16.80;99.90;;;;;;5034777;28;20381;-73
2023/08/03 03:09:41;;;;;;;11.23;3.40;;;16.80;99.90;;;;;;5043292;28;19956;-73
2023/08/03 03:12:07;;;;;;;10.17;3.30;;;16.80;99.90;;;;;;5035002;28;20033;-73
2023/08/03 03:14:35;;;;;;;7.97;2.80;;;16.90;99.90;;;;;;5037035;28;20357;-73
2023/08/03 03:17:01;;;;;;;8.98;3.72;;;16.90;99.90;;;;;;5036908;28;20112;-73
2023/08/03 03:19:27;;;;;;;5.93;2.85;;;16.90;99.90;;;;;;5028807;28;20026;-73
2023/08/03 03:21:53;;;;;;;8.60;3.07;;;16.90;99.90;;;;;;5045779;28;20083;-89
2023/08/03 03:24:19;;;;;;;8.13;2.70;;;16.90;99.90;;;;;;5033196;28;20749;-74
2023/08/03 03:26:45;;;;;;;4.33;2.40;;;16.90;99.90;;;;;;5026489;28;20340;-73
2023/08/03 03:29:10;;;;;;;7.77;2.87;;;16.90;99.90;;;;;;5034454;28;20282;-73
2023/08/03 03:31:36;;;;;;;5.20;2.87;;;16.90;99.90;;;;;;5052116;28;20044;-73
2023/08/03 03:34:02;;;;;;;6.90;2.50;;;16.90;99.90;;;;;;5023201;28;20026;-73
2023/08/03 03:36:28;;;;;;;5.20;2.53;;;16.90;99.90;;;;;;5036068;28;20025;-74
2023/08/03 03:38:53;;;;;;;3.73;2.73;;;16.90;99.90;;;;;;5033608;28;20057;-90
2023/08/03 03:41:19;;;;;;;6.10;2.50;;;16.90;99.90;;;;;;5036005;28;20097;-73
2023/08/03 03:43:45;;;;;;;4.63;2.43;;;16.90;99.90;;;;;;5032270;28;20048;-73
2023/08/03 03:46:11;;;;;;;7.77;2.87;;;16.90;99.90;;;;;;5036123;28;20037;-73
2023/08/03 03:48:36;;;;;;;4.33;2.30;;;16.90;99.90;;;;;;5032666;28;20033;-74
2023/08/03 03:51:02;;;;;;;8.33;2.37;;;16.90;99.90;;;;;;5035337;28;20087;-73
2023/08/03 03:53:28;;;;;;;8.00;2.27;;;16.90;99.90;;;;;;5046903;28;20021;-73
2023/08/03 03:55:53;;;;;;;5.20;2.07;;;16.90;99.90;;;;;;5027944;28;20119;-83
2023/08/03 03:58:19;;;;;;;4.80;2.40;;;16.90;99.90;;;;;;5035644;28;20086;-73
2023/08/03 04:00:45;;;;;;;6.20;2.90;;;16.80;99.90;;;;;;5030187;28;20414;-77
2023/08/03 04:03:11;;;;;;;3.57;2.43;;;16.90;99.90;;;;;;5033797;28;20049;-75
2023/08/03 04:05:37;;;;;;;7.43;2.40;;;16.90;99.90;;;;;;5036232;28;20025;-77
2023/08/03 04:08:04;;;;;;;7.20;2.28;;;16.90;99.90;;;;;;5034888;28;20413;-76
2023/08/03 04:10:30;;;;;;;5.32;2.53;;;16.90;99.90;;;;;;5034496;28;20032;-76
2023/08/03 04:12:56;;;;;;;7.13;2.45;;;16.90;99.90;;;;;;5022470;28;20075;-76
2023/08/03 04:15:21;;;;;;;5.03;1.90;;;16.90;99.90;;;;;;5033168;28;20112;-76
2023/08/03 04:17:48;;;;;;;2.30;1.80;;;16.90;99.90;;;;;;5034519;28;20034;-76
2023/08/03 04:20:14;;;;;;;;;;;16.90;99.90;;;;;;5033440;28;20029;-74
2023/08/03 04:22:40;;;;;;;2.35;1.35;;;16.90;99.90;;;;;;5021023;28;19909;-86
2023/08/03 04:25:06;;;;;;;5.77;1.23;;;16.80;99.90;;;;;;5043401;28;20041;-75
2023/08/03 04:27:32;;;;;;;6.88;1.58;;;16.80;99.90;;;;;;5034584;28;20451;-75
2023/08/03 04:29:58;;;;;;;5.57;1.60;;;16.90;99.90;;;;;;5026681;28;20034;-75
2023/08/03 04:32:23;;;;;;;11.97;1.60;;;16.80;99.90;;;;;;5045053;28;20025;-75
2023/08/03 04:34:49;;;;;;;3.23;1.40;;;16.90;99.90;;;;;;5049432;28;20057;-75
2023/08/03 04:37:15;;;;;;;2.33;1.67;;;16.80;99.90;;;;;;5027899;28;20035;-75
2023/08/03 04:39:40;;;;;;;7.40;1.53;;;16.80;99.90;;;;;;5035809;28;20033;-83
2023/08/03 04:42:06;;;;;;;3.17;2.07;;;16.80;99.90;;;;;;5051318;28;20029;-75
2023/08/03 04:44:32;;;;;;;3.30;1.23;;;16.90;99.90;;;;;;5048659;28;20436;-75
2023/08/03 04:46:58;;;;;;;4.43;2.13;;;16.90;99.90;;;;;;5016797;28;20380;-75
2023/08/03 04:49:25;;;;;;;6.90;1.53;;;16.90;99.90;;;;;;5045135;28;20056;-75
2023/08/03 04:51:51;;;;;;;10.07;1.48;;;16.90;99.90;;;;;;5022376;28;20064;-74
2023/08/03 04:54:17;;;;;;;3.97;1.20;;;16.90;99.90;;;;;;5050489;28;20025;-75
2023/08/03 04:56:43;;;;;;;3.85;0.90;;;16.90;99.90;;;;;;5019175;28;20028;-90
2023/08/03 04:59:09;;;;;;;1.53;1.10;;;16.90;99.90;;;;;;5024447;28;20029;-75
2023/08/03 05:01:34;;;;;;;6.07;1.40;;;17.00;99.90;;;;;;5033636;28;20316;-76
2023/08/03 05:04:00;;;;;;;6.00;1.87;;;17.00;99.90;;;;;;5034489;28;20567;-77
2023/08/03 05:06:27;;;;;;;1.80;0.95;;;17.00;99.90;;;;;;5025378;28;20025;-75
2023/08/03 05:08:53;;;;;;;7.40;1.20;;;17.00;99.90;;;;;;5034661;28;20034;-75
2023/08/03 05:11:18;;;;;;;13.40;1.57;;;16.90;99.90;;;;;;5024797;28;20025;-75
2023/08/03 05:13:44;;;;;;;7.03;1.77;;;16.90;99.90;;;;;;5028660;28;20028;-77
2023/08/03 05:16:10;;;;;;;2.97;1.00;;;16.90;99.90;;;;;;5049912;28;20437;-75
2023/08/03 05:18:35;;;;;;;8.00;1.70;;;16.90;99.90;;;;;;5034709;28;20034;-75
2023/08/03 05:21:01;;;;;;;6.37;1.33;;;16.90;99.90;;;;;;5033224;28;20020;-76
2023/08/03 05:23:27;;;;;;;6.57;1.87;;;16.90;99.90;;;;;;5034713;28;20029;-76
2023/08/03 05:25:57;;;;;;;6.50;2.23;;;16.90;99.90;;;;;;5030928;28;20136;-76
2023/08/03 05:28:24;;;;;;;5.82;1.63;;;16.90;99.90;;;;;;5034210;28;20036;-76
2023/08/03 05:30:50;;;;;;;5.35;1.85;;;16.90;99.90;;;;;;5029167;28;20432;-82
2023/08/03 05:33:16;;;;;;;4.83;1.50;;;16.90;99.90;;;;;;5034764;28;20108;-76
2023/08/03 05:35:44;;;;;;;10.83;1.97;;;16.90;99.90;;;;;;5021773;28;20079;-76
2023/08/03 05:38:10;;;;;;;7.35;1.50;;;16.90;99.90;;;;;;5032009;28;20034;-75
2023/08/03 05:40:39;;;;;;;4.97;1.40;;;16.90;99.90;;;;;;5026811;28;20044;-76
2023/08/03 05:43:10;;;;;;;6.95;2.28;;;16.90;99.90;;;;;;5032227;28;20033;-75
2023/08/03 05:45:48;;;;;;;5.60;1.25;;;16.90;99.90;;;;;;5029279;28;20319;-75
2023/08/03 05:48:16;;;;;;;9.18;2.00;;;17.00;99.90;;;;;;5018670;28;20021;-75
2023/08/03 05:50:47;;;;;;;4.55;1.63;;;17.00;99.90;;;;;;5038874;28;20080;-75
2023/08/03 05:53:13;;;;;;;10.30;1.30;;;17.00;99.90;;;;;;5031179;28;20026;-75
2023/08/03 05:55:40;;;;;;;8.00;1.30;;;17.00;99.90;;;;;;5031693;28;20036;-75
2023/08/03 05:58:08;;;;;;;5.60;1.27;;;17.00;99.90;;;;;;5028832;28;20040;-75
2023/08/03 06:00:34;;;;;;;11.00;1.92;;;17.10;99.90;;;;;;5027195;28;20482;-74
2023/08/03 06:03:00;;;;;;;7.68;1.60;;;17.00;99.90;;;;;;5043663;28;20036;-75
2023/08/03 06:05:38;;;;;;;14.38;1.77;;;17.10;99.90;;;;;;5025280;28;20037;-74
2023/08/03 06:08:25;;;;;;;6.32;1.75;;;17.10;99.90;;;;;;5043820;28;20335;-75
2023/08/03 06:10:56;;;;;;;6.40;1.50;;;17.10;99.90;;;;;;5024775;28;20037;-75
2023/08/03 06:13:27;;;;;;;7.90;1.38;;;17.20;99.90;;;;;;5033589;28;20286;-75
2023/08/03 06:15:53;;;;;;;11.57;2.05;;;17.20;99.90;;;;;;5027546;28;20080;-76
2023/08/03 06:18:20;;;;;;;3.93;1.10;;;17.30;99.90;;;;;;5028942;28;20033;-74
2023/08/03 06:20:51;;;;;;;4.20;1.70;;;17.30;99.90;;;;;;5024956;28;20033;-74
2023/08/03 06:23:22;;;;;;;6.25;1.50;;;17.30;99.90;;;;;;5030102;28;20037;-75
2023/08/03 06:25:50;;;;;;;4.28;1.17;;;17.30;99.90;;;;;;5039967;28;20379;-74
2023/08/03 06:28:18;;;;;;;6.80;1.33;;;17.30;99.90;;;;;;5036780;28;20123;-74
2023/08/03 06:30:48;;;;;;;4.60;1.45;;;17.40;99.90;;;;;;5049996;28;20013;-80
2023/08/03 06:33:16;;;;;;;3.13;1.27;;;17.30;99.90;;;;;;5048563;28;20025;-74
2023/08/03 06:35:44;;;;;;;4.75;1.25;;;17.40;99.90;;;;;;5036379;28;20100;-74
2023/08/03 06:38:32;;;;;;;4.32;1.60;;;17.40;99.90;;;;;;5048521;28;20116;-74
2023/08/03 06:40:58;;;;;;;5.57;1.23;;;17.40;99.90;;;;;;5038273;28;20053;-74
2023/08/03 06:43:24;;;;;;;4.00;0.80;;;17.50;99.90;;;;;;5040888;28;20033;-80
2023/08/03 06:45:50;;;;;;;6.40;1.50;;;17.50;99.90;;;;;;5020572;28;20096;-74
2023/08/03 06:48:16;;;;;;;10.77;1.17;;;17.50;99.90;;;;;;5049680;28;20124;-74
2023/08/03 06:50:42;;;;;;;5.53;1.10;;;17.60;99.90;;;;;;5023632;28;20061;-89
2023/08/03 06:53:09;;;;;;;5.10;1.77;;;17.60;99.90;;;;;;5030844;28;20274;-82
2023/08/03 06:55:34;;;;;;;8.15;1.63;;;17.60;99.90;;;;;;5040372;28;20038;-75
2023/08/03 06:58:00;;;;;;;9.27;1.10;;;17.60;99.90;;;;;;5037611;28;20034;-75
2023/08/03 07:00:26;;;;;;;5.37;1.43;;;17.60;99.90;;;;;;5041171;28;20047;-76
2023/08/03 07:02:52;;;;;;;11.43;1.83;;;17.60;99.90;;;;;;5033756;28;20064;-75
2023/08/03 07:05:18;;;;;;;8.75;1.83;;;17.60;99.90;;;;;;5056928;28;20420;-77
2023/08/03 07:07:43;;;;;;;6.90;1.80;;;17.60;99.90;;;;;;5035248;28;20036;-75
2023/08/03 07:10:09;;;;;;;6.30;1.50;;;17.60;99.90;;;;;;5023030;28;20052;-78
2023/08/03 07:12:35;;;;;;;3.53;1.23;;;17.70;99.90;;;;;;5045197;28;20032;-75
2023/08/03 07:15:02;;;;;;;6.03;1.45;;;17.70;99.90;;;;;;5030966;28;20038;-74
2023/08/03 07:17:28;;;;;;;5.72;1.15;;;17.70;99.90;;;;;;5025687;28;20021;-74
2023/08/03 07:19:54;;;;;;;6.73;1.63;;;17.70;99.90;;;;;;5036982;28;20332;-74
2023/08/03 07:22:21;;;;;;;8.35;1.63;;;17.80;99.90;;;;;;5036677;28;20290;-74
2023/08/03 07:24:46;;;;;;;7.68;1.40;;;17.90;99.90;;;;;;5029948;28;20033;-74
2023/08/03 07:27:12;;;;;;;8.27;1.63;;;17.90;99.90;;;;;;5036428;28;20047;-77
2023/08/03 07:29:38;;;;;;;4.13;1.07;;;18.00;99.90;;;;;;5035394;28;20028;-74
2023/08/03 07:32:04;;;;;;;5.57;1.50;;;18.00;99.90;;;;;;5026305;28;20080;-74
2023/08/03 07:34:30;;;;;;;5.82;1.42;;;18.20;99.90;;;;;;5032560;28;20414;-73
2023/08/03 07:36:57;;;;;;;6.47;2.03;;;18.20;99.90;;;;;;5031171;28;20448;-75
2023/08/03 07:39:23;;;;;;;3.67;1.55;;;18.20;99.90;;;;;;5030656;28;20033;-86
2023/08/03 07:41:49;;;;;;;7.60;3.05;;;18.20;99.90;;;;;;5036681;28;20033;-75
2023/08/03 07:44:16;;;;;;;8.25;3.35;;;18.20;99.90;;;;;;5036240;28;20038;-74
2023/08/03 07:46:42;;;;;;;10.75;3.28;;;18.20;99.90;;;;;;5036147;28;20013;-73
2023/08/03 07:49:08;;;;;;;7.13;3.80;;;18.20;99.90;;;;;;5036758;28;20036;-73
2023/08/03 07:51:33;;;;;;;10.67;4.10;;;18.30;99.90;;;;;;5036649;28;20029;-73
2023/08/03 07:53:59;;;;;;;11.30;3.60;;;18.30;99.90;;;;;;5033850;28;20083;-74
2023/08/03 07:56:25;;;;;;;9.97;2.80;;;18.40;99.90;;;;;;5035910;28;20033;-74
2023/08/03 07:58:51;;;;;;;7.13;2.57;;;18.40;99.90;;;;;;5036472;28;20090;-74
2023/08/03 08:01:18;;;;;;;10.95;2.83;;;18.60;99.90;;;;;;5022407;28;20026;-79
2023/08/03 08:03:44;;;;;;;6.13;1.75;;;18.50;99.90;;;;;;5022048;28;20044;-73
2023/08/03 08:06:18;;;;;;;6.57;2.00;;;18.60;99.90;;;;;;5034227;28;20388;-82
2023/08/03 08:08:45;;;;;;;6.90;1.55;;;18.60;99.90;;;;;;5031239;28;20032;-72
2023/08/03 08:11:11;;;;;;;;;;;18.60;99.90;;;;;;5043085;28;20032;-73
2023/08/03 08:13:37;;;;;;;4.78;1.40;;;18.50;99.90;;;;;;5039014;28;19909;-73
2023/08/03 08:16:05;;;;;;;3.70;1.33;;;18.50;99.90;;;;;;5046706;28;20033;-73
2023/08/03 08:18:31;;;;;;;2.67;1.25;;;18.60;99.90;;;;;;5034698;28;20482;-74
2023/08/03 08:20:59;;;;;;;3.17;1.83;;;18.70;99.90;;;;;;5028115;28;20030;-74
2023/08/03 08:23:25;;;;;;;2.72;1.40;;;18.90;99.90;;;;;;5025235;28;20033;-74
2023/08/03 08:25:50;;;;;;;3.60;0.90;;;19.00;99.90;;;;;;5029426;28;20040;-73
2023/08/03 08:28:16;;;;;;;6.40;1.10;;;18.80;99.90;;;;;;5039490;28;20420;-73
2023/08/03 08:30:44;;;;;;;4.32;1.20;;;18.80;99.90;;;;;;5049611;28;20080;-73
2023/08/03 08:33:10;;;;;;;2.88;1.17;;;19.00;99.90;;;;;;5034638;28;20029;-73
2023/08/03 08:35:35;;;;;;;3.57;1.67;;;19.00;99.90;;;;;;5036000;28;20089;-72
2023/08/03 08:38:04;;;;;;;6.97;1.63;;;19.20;99.90;;;;;;5030791;28;20260;-73
2023/08/03 08:40:33;;;;;;;3.28;1.30;;;19.40;99.90;;;;;;5026728;28;20147;-74
2023/08/03 08:42:59;;;;;;;5.25;1.27;;;19.50;99.90;;;;;;5034808;28;20056;-88
2023/08/03 08:45:25;;;;;;;4.17;1.40;;;19.60;99.90;;;;;;5030712;28;20022;-74
2023/08/03 08:47:51;;;;;;;5.87;1.37;;;19.90;99.90;;;;;;5037648;28;20030;-73
2023/08/03 08:50:16;;;;;;;4.63;1.27;;;20.00;99.90;;;;;;5044350;28;20025;-74
2023/08/03 08:52:44;;;;;;;5.40;1.53;;;20.10;99.90;;;;;;5026825;28;20022;-74
2023/08/03 08:55:17;;;;;;;5.65;1.35;;;20.10;99.90;;;;;;5023229;28;20032;-72
2023/08/03 08:57:43;;;;;;;4.05;1.13;;;19.90;99.90;;;;;;5023559;28;20079;-75
2023/08/03 09:00:09;;;;;;;3.83;1.07;;;19.60;99.90;;;;;;5030355;28;20026;-74
2023/08/03 09:02:36;;;;;;;2.75;1.05;;;19.10;99.90;;;;;;5027032;28;20112;-73
2023/08/03 09:05:16;;;;;;;3.70;1.05;;;18.80;99.90;;;;;;5036175;28;20030;-73
2023/08/03 09:07:43;;;;;;;4.55;2.00;;;18.60;99.90;;;;;;5026709;28;20564;-73
2023/08/03 09:10:09;;;;;;;1.90;1.48;;;18.50;99.90;;;;;;5014848;28;20367;-72
2023/08/03 09:12:37;;;;;;;3.80;1.27;;;18.50;99.90;;;;;;5015063;28;20420;-73
2023/08/03 09:15:03;;;;;;;4.93;1.48;;;18.50;99.90;;;;;;5023083;28;20034;-74
2023/08/03 09:17:29;;;;;;;3.30;1.98;;;18.90;99.90;;;;;;5039831;28;20435;-72
2023/08/03 09:19:55;;;;;;;5.37;1.97;;;18.90;99.90;;;;;;5040355;28;20045;-74
2023/08/03 09:22:22;;;;;;;2.67;1.57;;;19.10;99.90;;;;;;5018240;28;20298;-74
2023/08/03 09:25:07;;;;;;;5.50;1.98;;;19.30;99.90;;;;;;5034932;28;20057;-74
2023/08/03 09:27:33;;;;;;;6.10;1.63;;;19.60;99.90;;;;;;5020494;28;20056;-73
2023/08/03 09:30:02;;;;;;;4.68;1.65;;;19.90;99.90;;;;;;5034442;28;20079;-73
2023/08/03 09:32:34;;;;;;;2.88;1.13;;;19.70;99.90;;;;;;5028018;28;20018;-73
2023/08/03 09:35:14;;;;;;;3.92;1.00;;;19.70;99.90;;;;;;5030674;28;20022;-76
2023/08/03 09:37:40;;;;;;;3.13;1.08;;;19.60;99.90;;;;;;5031637;28;20049;-73
2023/08/03 09:40:07;;;;;;;3.70;0.73;;;19.60;99.90;;;;;;5034741;28;20064;-73
2023/08/03 09:42:33;;;;;;;3.35;0.90;;;19.40;99.90;;;;;;5018054;28;20037;-75
2023/08/03 09:45:04;;;;;;;10.05;1.13;;;19.30;99.90;;;;;;5021271;28;20028;-75
2023/08/03 09:47:31;;;;;;;2.78;0.98;;;19.30;99.90;;;;;;5018638;28;20095;-73
2023/08/03 09:49:57;;;;;;;7.13;1.02;;;19.10;99.90;;;;;;5032468;28;20022;-74
2023/08/03 09:52:26;;;;;;;7.53;1.00;;;19.00;99.90;;;;;;5022666;28;20029;-87
2023/08/03 09:55:05;;;;;;;1.90;0.73;;;18.90;99.90;;;;;;5032221;28;20068;-74
2023/08/03 09:57:34;;;;;;;5.03;0.93;;;19.00;99.90;;;;;;5047156;28;20128;-73
2023/08/03 10:00:06;;;;;;;4.40;0.80;;;19.20;99.90;;;;;;5033965;28;20025;-74
2023/08/03 10:02:40;;;;;;;1.95;0.88;;;19.30;99.90;;;;;;5021632;28;20018;-74
2023/08/03 10:05:09;;;;;;;3.10;0.63;;;19.30;99.90;;;;;;5020224;28;20057;-73
2023/08/03 10:07:44;;;;;;;1.70;0.43;;;19.40;99.90;;;;;;5019700;28;20316;-74
2023/08/03 10:10:12;;;;;;;6.20;1.00;;;19.60;99.90;;;;;;5031914;28;20032;-72
2023/08/03 10:12:44;;;;;;;4.28;1.05;;;19.50;99.90;;;;;;5028314;28;20317;-72
2023/08/03 10:15:14;;;;;;;1.83;0.88;;;19.30;99.90;;;;;;5030135;28;20156;-73
2023/08/03 10:17:41;;;;;;;3.95;1.17;;;19.00;99.90;;;;;;5034343;28;20091;-72
2023/08/03 10:20:07;;;;;;;;;;;18.90;99.90;;;;;;5033251;28;20064;-74
2023/08/03 10:22:34;;;;;;;;;;;19.00;99.90;;;;;;5036922;28;19908;-74
2023/08/03 10:25:19;;;;;;;3.95;1.52;;;19.00;99.90;;;;;;5027122;28;19917;-73
2023/08/03 10:28:13;;;;;;;6.22;1.05;;;19.00;99.90;;;;;;5036271;28;20046;-75
2023/08/03 10:31:03;;;;;;;4.55;0.98;;;19.00;99.90;;;;;;5026378;28;20409;-72
2023/08/03 10:33:48;;;;;;;5.63;1.42;;;18.80;99.90;;;;;;5025012;28;20025;-74
2023/08/03 10:36:29;;;;;;;1.40;0.80;;;18.70;99.90;;;;;;5027925;28;20025;-72
2023/08/03 10:38:56;;;;;;;5.55;1.23;;;18.70;99.90;;;;;;5020379;28;20029;-72
2023/08/03 10:41:22;;;;;;;;;;;18.70;99.90;;;;;;5023958;28;20053;-86
2023/08/03 10:44:13;;;;;;;5.25;0.95;;;18.60;99.90;;;;;;5029867;28;19909;-75
2023/08/03 10:46:40;;;;;;;4.50;1.15;;;18.50;99.90;;;;;;5019650;28;20065;-80
2023/08/03 10:49:17;;;;;;;;;;;18.30;99.90;;;;;;5027255;28;20086;-73
2023/08/03 10:52:02;;;;;;;2.78;1.00;;;18.30;99.90;;;;;;5045253;28;19916;-75
2023/08/03 10:54:29;;;;;;;2.22;0.63;;;18.30;99.90;;;;;;5041506;28;20033;-72
2023/08/03 10:57:09;;;;;;;3.05;1.63;;;18.10;99.90;;;;;;5023215;28;20017;-73
2023/08/03 10:59:39;;;;;;;0.90;0.60;;;18.00;99.90;;;;;;5028527;28;20021;-72
2023/08/03 11:02:14;;;;;;;1.25;0.43;;;18.00;99.90;;;;;;5027153;28;20065;-73
2023/08/03 11:04:41;;;;;;;5.70;0.43;;;18.10;99.90;;;;;;5042422;28;20031;-73
2023/08/03 11:07:09;;;;;;;2.63;0.38;;;18.30;99.90;;;;;;5033164;28;20017;-73
2023/08/03 11:09:35;;;;;;;6.38;1.17;;;18.70;99.90;;;;;;5048013;28;20033;-72
2023/08/03 11:12:02;;;;;;;0.47;0.47;;;19.10;99.90;;;;;;5040046;28;20029;-73
2023/08/03 11:14:28;;;;;;;;;;;19.20;99.90;;;;;;5037677;28;20028;-73
2023/08/03 11:16:54;;;;;;;1.30;0.38;;;19.10;99.90;;;;;;5043130;28;19909;-73
2023/08/03 11:19:21;;;;;;;1.50;0.50;;;19.20;99.90;;;;;;5059916;28;20439;-79
2023/08/03 11:21:47;;;;;;;3.72;0.60;;;19.20;99.90;;;;;;5049010;28;20021;-72
2023/08/03 11:24:12;;;;;;;0.63;0.47;;;19.30;99.90;;;;;;5052334;28;20029;-81
2023/08/03 11:26:38;;;;;;;2.60;0.57;;;19.30;99.90;;;;;;5049944;28;20506;-73
2023/08/03 11:29:06;;;;;;;4.67;0.90;;;19.10;99.90;;;;;;5037726;28;20104;-73
2023/08/03 11:31:32;;;;;;;1.08;0.50;;;19.00;99.90;;;;;;5049741;28;20345;-83
2023/08/03 11:33:58;;;;;;;1.15;0.40;;;18.90;99.90;;;;;;5028963;28;20026;-83
2023/08/03 11:36:24;;;;;;;0.87;0.83;;;18.90;99.90;;;;;;5045315;28;20044;-73
2023/08/03 11:38:51;;;;;;;0.50;0.40;;;19.00;99.90;;;;;;5068044;28;20036;-73
2023/08/03 11:41:24;;;;;;;0.47;0.32;;;18.90;99.90;;;;;;5048160;28;20021;-74
2023/08/03 11:43:50;;;;;;;0.95;0.50;;;18.90;99.90;;;;;;5033960;28;20045;-74
2023/08/03 11:46:27;;;;;;;2.90;0.60;;;18.80;99.90;;;;;;5034368;28;20408;-72
2023/08/03 11:48:56;;;;;;;0.65;0.52;;;18.80;99.90;;;;;;5026528;28;20255;-72
2023/08/03 11:51:30;;;;;;;1.20;0.38;;;18.80;99.90;;;;;;5033410;28;20310;-73
2023/08/03 11:53:56;;;;;;;1.98;0.32;;;18.80;99.90;;;;;;5049030;28;20021;-73
2023/08/03 11:56:21;;;;;;;1.63;0.47;;;18.70;99.90;;;;;;5046227;28;20294;-73
2023/08/03 11:58:47;;;;;;;1.63;0.97;;;18.50;99.90;;;;;;5042951;28;20484;-74
2023/08/03 12:01:13;;;;;;;5.40;0.67;;;18.40;99.90;;;;;;5043221;28;20030;-73
2023/08/03 12:03:38;;;;;;;4.13;0.60;;;18.40;99.90;;;;;;5036151;28;20032;-72
2023/08/03 12:06:09;;;;;;;2.80;0.63;;;18.40;99.90;;;;;;5049010;28;20029;-73
2023/08/03 12:08:45;;;;;;;1.70;1.00;;;18.30;99.90;;;;;;5039739;28;20097;-74
2023/08/03 12:11:15;;;;;;;2.33;1.10;;;18.30;99.90;;;;;;5042278;28;20096;-73
2023/08/03 12:13:41;;;;;;;0.82;0.40;;;18.10;99.90;;;;;;5053040;28;20025;-74
2023/08/03 12:16:07;;;;;;;6.60;0.50;;;18.00;99.90;;;;;;5037916;28;20432;-72
2023/08/03 12:18:32;;;;;;;2.20;1.50;;;18.00;99.90;;;;;;5046352;28;20305;-83
2023/08/03 12:20:58;;;;;;;1.23;0.63;;;17.90;99.90;;;;;;5069547;28;20122;-74
2023/08/03 12:23:24;;;;;;;1.40;1.03;;;17.90;99.90;;;;;;5045184;28;20045;-82
2023/08/03 12:25:52;;;;;;;3.23;0.90;;;17.90;99.90;;;;;;5030415;28;20017;-74
2023/08/03 12:28:18;;;;;;;5.10;1.25;;;17.80;99.90;;;;;;5047653;28;20396;-73
2023/08/03 12:30:43;;;;;;;1.00;0.90;;;17.80;99.90;;;;;;5035036;28;20101;-72
2023/08/03 12:33:10;;;;;;;5.50;0.87;;;17.80;99.90;;;;;;5040665;28;20053;-73
2023/08/03 12:35:35;;;;;;;5.20;1.00;;;18.00;99.90;;;;;;5046372;28;20025;-73
2023/08/03 12:38:01;;;;;;;4.43;1.00;;;18.10;99.90;;;;;;5044823;28;20649;-73
2023/08/03 12:40:27;;;;;;;3.47;0.87;;;18.10;99.90;;;;;;5051480;28;20078;-79
2023/08/03 12:42:54;;;;;;;3.90;1.33;;;18.10;99.90;;;;;;5039568;28;20293;-73
2023/08/03 12:45:19;;;;;;;4.63;1.52;;;18.30;99.90;;;;;;5023991;28;20079;-73
2023/08/03 12:47:45;;;;;;;7.93;1.63;;;18.50;99.90;;;;;;5043643;28;20041;-72
2023/08/03 12:50:11;;;;;;;5.27;1.70;;;18.60;99.90;;;;;;5050260;28;20021;-74